Time;durP1;ratioP1;P1;durP2;ratioP2;P2;SDS_P1;SDS_P2;PMS_P1;PMS_P2;Temp;Humidity;BMP_temperature;BMP_pressure;BME280_temperature;BME280_humidity;BME280_pressure;Samples;Min_cycle;Max_cycle;Signal;HPM_P1;HPM_P2
2023/07/05 00:00:31;;;;;;;8.07;5.75;;;17.10;89.70;;;;;;5050451;28;20072;-68
2023/07/05 00:02:57;;;;;;;8.18;5.95;;;17.10;89.50;;;;;;5065734;28;20033;-67
2023/07/05 00:05:22;;;;;;;11.68;8.35;;;17.10;89.80;;;;;;5051834;28;20092;-67
2023/07/05 00:07:48;;;;;;;10.63;7.10;;;17.10;90.10;;;;;;5053298;28;20087;-67
2023/07/05 00:10:14;;;;;;;8.32;6.20;;;17.10;90.20;;;;;;5052090;28;20036;-67
2023/07/05 00:12:40;;;;;;;14.88;8.75;;;17.10;90.30;;;;;;5054808;28;20028;-67
2023/07/05 00:15:06;;;;;;;12.38;7.50;;;17.10;90.80;;;;;;5047009;28;20025;-67
2023/07/05 00:17:33;;;;;;;12.77;7.40;;;17.10;90.70;;;;;;5053614;28;20024;-67
2023/07/05 00:19:59;;;;;;;13.98;7.45;;;17.10;90.60;;;;;;5051776;28;20039;-67
2023/07/05 00:22:26;;;;;;;13.00;7.53;;;17.10;90.90;;;;;;5063546;28;20050;-67
2023/07/05 00:24:55;;;;;;;10.90;7.75;;;17.10;90.90;;;;;;5051241;28;20495;-68
2023/07/05 00:27:24;;;;;;;11.05;7.47;;;17.10;91.00;;;;;;5055349;28;20025;-68
2023/07/05 00:29:52;;;;;;;11.52;7.70;;;17.10;91.00;;;;;;5051427;28;20029;-68
2023/07/05 00:32:21;;;;;;;11.98;7.93;;;17.10;91.00;;;;;;5061162;28;20025;-68
2023/07/05 00:34:47;;;;;;;10.95;7.43;;;17.10;91.10;;;;;;5066173;28;20024;-68
2023/07/05 00:37:13;;;;;;;9.95;7.35;;;17.10;91.20;;;;;;5056332;28;20029;-68
2023/07/05 00:39:38;;;;;;;9.05;6.80;;;17.10;91.30;;;;;;5051303;28;20017;-68
2023/07/05 00:42:05;;;;;;;9.95;6.35;;;17.10;91.50;;;;;;5058385;28;20025;-67
2023/07/05 00:44:31;;;;;;;11.13;7.20;;;17.10;91.60;;;;;;5050474;28;20017;-67
2023/07/05 00:47:02;;;;;;;9.85;6.60;;;17.10;91.60;;;;;;5057510;28;20036;-67
2023/07/05 00:49:29;;;;;;;10.57;6.40;;;17.20;91.50;;;;;;5053456;28;20143;-67
2023/07/05 00:51:59;;;;;;;8.88;6.53;;;17.20;91.50;;;;;;5060591;28;20766;-67
2023/07/05 00:54:31;;;;;;;8.80;5.80;;;17.10;91.70;;;;;;5051253;28;20020;-67
2023/07/05 00:57:06;;;;;;;10.35;6.15;;;17.10;91.90;;;;;;5057931;28;20025;-67
2023/07/05 00:59:36;;;;;;;9.02;5.75;;;17.10;92.10;;;;;;5051184;28;20032;-66
2023/07/05 01:02:02;;;;;;;9.73;5.90;;;17.00;92.40;;;;;;5050420;28;20498;-66
2023/07/05 01:04:29;;;;;;;8.32;5.03;;;17.00;92.60;;;;;;5051373;28;20096;-67
2023/07/05 01:06:55;;;;;;;8.50;5.60;;;17.00;92.60;;;;;;5053379;28;20021;-66
2023/07/05 01:09:21;;;;;;;7.18;4.93;;;17.00;93.10;;;;;;5050604;28;20429;-66
2023/07/05 01:12:02;;;;;;;7.80;5.00;;;17.00;93.20;;;;;;5051290;28;20025;-66
2023/07/05 01:14:40;;;;;;;7.32;4.75;;;17.00;93.20;;;;;;5058148;28;20031;-65
2023/07/05 01:17:14;;;;;;;8.38;4.85;;;17.00;93.20;;;;;;5055228;28;20029;-66
2023/07/05 01:20:15;;;;;;;6.78;4.40;;;17.00;93.40;;;;;;5053512;28;20036;-66
2023/07/05 01:23:03;;;;;;;6.10;4.20;;;17.00;93.40;;;;;;5046754;28;20029;-66
2023/07/05 01:25:51;;;;;;;7.07;4.40;;;17.00;93.40;;;;;;5050591;28;20028;-66
2023/07/05 01:28:16;;;;;;;8.82;4.43;;;17.00;93.50;;;;;;5049429;28;20103;-67
2023/07/05 01:31:12;;;;;;;7.68;4.13;;;17.00;93.50;;;;;;5050782;28;20075;-67
2023/07/05 01:33:41;;;;;;;6.07;4.22;;;17.00;93.60;;;;;;5058327;28;20033;-67
2023/07/05 01:36:09;;;;;;;8.38;4.63;;;17.00;93.90;;;;;;5056629;28;20056;-66
2023/07/05 01:38:34;;;;;;;8.07;4.20;;;17.00;94.20;;;;;;5057145;28;20028;-66
2023/07/05 01:41:04;;;;;;;7.85;4.00;;;17.00;94.30;;;;;;5050529;28;20032;-66
2023/07/05 01:43:31;;;;;;;7.20;4.13;;;17.00;94.10;;;;;;5052999;28;20036;-66
2023/07/05 01:46:20;;;;;;;6.90;4.78;;;17.00;94.00;;;;;;5052902;28;20039;-66
2023/07/05 01:49:08;;;;;;;8.63;5.20;;;17.10;94.10;;;;;;5049862;28;20075;-66
2023/07/05 01:51:51;;;;;;;9.35;4.78;;;17.10;94.20;;;;;;5044761;28;20033;-66
2023/07/05 01:54:27;;;;;;;9.10;5.15;;;17.00;94.30;;;;;;5050069;28;20017;-66
2023/07/05 01:57:27;;;;;;;7.03;4.82;;;17.00;94.50;;;;;;5058752;28;20016;-67
2023/07/05 01:59:58;;;;;;;10.00;5.32;;;17.00;94.40;;;;;;5048623;28;20123;-67
2023/07/05 02:02:29;;;;;;;7.20;4.90;;;17.10;94.40;;;;;;5049780;28;20596;-67
2023/07/05 02:04:56;;;;;;;8.85;5.03;;;17.00;94.60;;;;;;5051408;28;20056;-67
2023/07/05 02:07:26;;;;;;;7.90;4.63;;;17.00;94.70;;;;;;5059458;28;20025;-66
2023/07/05 02:09:52;;;;;;;6.50;4.57;;;17.10;94.60;;;;;;5050613;28;20017;-66
2023/07/05 02:12:17;;;;;;;8.15;4.82;;;17.10;94.80;;;;;;5050105;28;20031;-66
2023/07/05 02:14:43;;;;;;;5.50;4.00;;;17.10;94.50;;;;;;5049760;28;20096;-66
2023/07/05 02:17:08;;;;;;;6.40;4.65;;;17.10;94.90;;;;;;5049274;28;20083;-66
2023/07/05 02:19:34;;;;;;;4.85;3.60;;;17.20;94.60;;;;;;5046195;28;20030;-66
2023/07/05 02:22:00;;;;;;;6.32;3.95;;;17.20;94.50;;;;;;5047000;28;20037;-66
2023/07/05 02:24:25;;;;;;;6.63;4.28;;;17.30;94.30;;;;;;5055081;28;20012;-66
2023/07/05 02:26:54;;;;;;;5.18;3.70;;;17.30;94.20;;;;;;5049586;28;20021;-66
2023/07/05 02:29:20;;;;;;;4.70;3.60;;;17.30;94.20;;;;;;5049351;28;20032;-66
2023/07/05 02:31:46;;;;;;;4.40;3.20;;;17.30;94.20;;;;;;5033180;28;20032;-67
2023/07/05 02:34:11;;;;;;;4.25;3.00;;;17.40;94.20;;;;;;5039352;28;20022;-66
2023/07/05 02:36:38;;;;;;;4.82;3.28;;;17.40;94.20;;;;;;5049958;28;20025;-66
2023/07/05 02:39:04;;;;;;;4.35;2.92;;;17.40;94.10;;;;;;5048974;28;20025;-66
2023/07/05 02:41:29;;;;;;;5.30;3.47;;;17.40;94.10;;;;;;5049992;28;20025;-66
2023/07/05 02:43:55;;;;;;;4.85;2.70;;;17.40;94.00;;;;;;5049374;28;20102;-66
2023/07/05 02:46:23;;;;;;;5.32;3.03;;;17.40;94.00;;;;;;5054387;28;20060;-66
2023/07/05 02:48:48;;;;;;;4.72;3.10;;;17.40;93.90;;;;;;5048714;28;20025;-66
2023/07/05 02:51:14;;;;;;;4.47;3.08;;;17.40;94.00;;;;;;5053507;28;20029;-66
2023/07/05 02:53:39;;;;;;;4.95;2.70;;;17.30;94.10;;;;;;5053630;28;20021;-66
2023/07/05 02:56:06;;;;;;;4.47;2.75;;;17.30;94.00;;;;;;5053254;28;20403;-66
2023/07/05 02:58:31;;;;;;;5.93;2.97;;;17.30;93.90;;;;;;5058746;28;20021;-67
2023/07/05 03:00:57;;;;;;;3.65;2.20;;;17.30;93.70;;;;;;5053212;28;20033;-67
2023/07/05 03:03:22;;;;;;;3.30;2.35;;;17.30;93.60;;;;;;5054134;28;20060;-66
2023/07/05 03:05:59;;;;;;;3.80;2.58;;;17.20;93.40;;;;;;5053769;28;20017;-66
2023/07/05 03:08:26;;;;;;;3.13;2.72;;;17.20;93.00;;;;;;5054022;28;20056;-66
2023/07/05 03:10:53;;;;;;;4.78;2.50;;;17.10;92.60;;;;;;5054851;28;20021;-67
2023/07/05 03:13:18;;;;;;;5.35;3.17;;;17.10;92.30;;;;;;5053196;28;20025;-67
2023/07/05 03:15:44;;;;;;;4.68;3.30;;;17.00;91.90;;;;;;5053666;28;20429;-67
2023/07/05 03:18:09;;;;;;;4.88;3.30;;;16.90;91.50;;;;;;5056212;28;20025;-66
2023/07/05 03:20:37;;;;;;;4.40;3.40;;;16.80;90.90;;;;;;5053879;28;20032;-67
2023/07/05 03:23:03;;;;;;;4.32;3.28;;;16.70;90.10;;;;;;5052730;28;20051;-67
2023/07/05 03:25:28;;;;;;;5.78;3.78;;;16.60;89.80;;;;;;5054950;28;20107;-67
2023/07/05 03:27:54;;;;;;;4.32;3.10;;;16.50;89.50;;;;;;5052845;28;20399;-67
2023/07/05 03:30:19;;;;;;;3.45;2.72;;;16.40;89.40;;;;;;5061544;28;20162;-67
2023/07/05 03:32:45;;;;;;;5.15;3.53;;;16.40;89.50;;;;;;5048341;28;20041;-66
2023/07/05 03:35:11;;;;;;;5.80;3.75;;;16.30;89.10;;;;;;5065057;28;20029;-66
2023/07/05 03:37:37;;;;;;;4.13;3.00;;;16.20;88.30;;;;;;5057165;28;20032;-66
2023/07/05 03:40:03;;;;;;;3.95;3.15;;;16.10;88.40;;;;;;5052548;28;20033;-66
2023/07/05 03:42:29;;;;;;;4.75;3.30;;;16.10;88.50;;;;;;5034510;28;20024;-66
2023/07/05 03:44:54;;;;;;;4.20;3.30;;;16.10;88.40;;;;;;5052948;28;20687;-66
2023/07/05 03:47:20;;;;;;;6.13;3.33;;;16.00;88.50;;;;;;5052802;28;20400;-67
2023/07/05 03:49:46;;;;;;;4.82;3.38;;;16.00;88.40;;;;;;5058233;28;20025;-67
2023/07/05 03:52:13;;;;;;;4.40;3.10;;;16.00;88.30;;;;;;5051774;28;20013;-67
2023/07/05 03:54:38;;;;;;;4.45;3.15;;;16.00;88.30;;;;;;5056774;28;20099;-67
2023/07/05 03:57:04;;;;;;;5.57;3.50;;;15.90;88.30;;;;;;5052491;28;20112;-67
2023/07/05 03:59:30;;;;;;;5.20;3.40;;;15.90;88.30;;;;;;5051397;28;20032;-67
2023/07/05 04:01:55;;;;;;;5.15;3.30;;;15.80;88.10;;;;;;5036403;28;20052;-67
2023/07/05 04:04:21;;;;;;;5.43;3.30;;;15.70;88.00;;;;;;5051077;28;20013;-67
2023/07/05 04:06:47;;;;;;;4.40;2.95;;;15.70;88.10;;;;;;5057716;28;20100;-67
2023/07/05 04:09:12;;;;;;;5.28;2.95;;;15.70;88.20;;;;;;5051437;28;20027;-66
2023/07/05 04:11:38;;;;;;;4.00;2.90;;;15.70;88.10;;;;;;5036691;28;20461;-67
2023/07/05 04:14:03;;;;;;;5.07;3.00;;;15.70;88.10;;;;;;5052307;28;20035;-66
2023/07/05 04:16:29;;;;;;;5.65;3.38;;;15.60;88.00;;;;;;5068444;28;20059;-67
2023/07/05 04:18:56;;;;;;;5.25;2.97;;;15.60;87.90;;;;;;5058660;28;20062;-67
2023/07/05 04:21:24;;;;;;;5.82;3.30;;;15.60;87.80;;;;;;5056785;28;20021;-67
2023/07/05 04:23:49;;;;;;;6.40;3.70;;;15.60;87.60;;;;;;5051882;28;20025;-67
2023/07/05 04:26:18;;;;;;;5.88;3.80;;;15.60;87.40;;;;;;5059673;28;20070;-67
2023/07/05 04:28:45;;;;;;;6.35;3.42;;;15.50;87.20;;;;;;5052003;28;20029;-67
2023/07/05 04:31:15;;;;;;;4.18;3.08;;;15.60;87.10;;;;;;5053070;28;20053;-67
2023/07/05 04:33:41;;;;;;;6.55;3.65;;;15.60;86.90;;;;;;5051988;28;20036;-67
2023/07/05 04:36:07;;;;;;;4.80;3.15;;;15.60;86.70;;;;;;5061560;28;20031;-67
2023/07/05 04:38:33;;;;;;;4.18;3.20;;;15.60;86.60;;;;;;5061555;28;20033;-67
2023/07/05 04:40:59;;;;;;;7.60;3.60;;;15.60;86.60;;;;;;5052299;28;20091;-67
2023/07/05 04:43:28;;;;;;;5.10;3.45;;;15.60;86.50;;;;;;5051823;28;20434;-67
2023/07/05 04:45:56;;;;;;;6.47;3.88;;;15.60;86.30;;;;;;5040497;28;20021;-66
2023/07/05 04:48:22;;;;;;;5.63;3.92;;;15.60;86.10;;;;;;5058439;28;20021;-66
2023/07/05 04:50:52;;;;;;;6.85;4.18;;;15.60;85.90;;;;;;5064045;28;20155;-66
2023/07/05 04:53:21;;;;;;;6.38;3.83;;;15.60;85.80;;;;;;5058486;28;20063;-66
2023/07/05 04:55:48;;;;;;;6.05;4.10;;;15.60;85.80;;;;;;5051915;28;20492;-66
2023/07/05 04:58:15;;;;;;;6.07;4.38;;;15.60;85.80;;;;;;5051353;28;20028;-66
2023/07/05 05:00:46;;;;;;;6.78;4.00;;;15.60;85.70;;;;;;5052268;28;20029;-66
2023/07/05 05:03:16;;;;;;;6.70;4.30;;;15.70;85.50;;;;;;5052193;28;20079;-66
2023/07/05 05:05:45;;;;;;;5.20;4.07;;;15.60;85.30;;;;;;5057761;28;20092;-66
2023/07/05 05:08:12;;;;;;;7.07;3.72;;;15.60;85.30;;;;;;5045953;28;20545;-66
2023/07/05 05:10:38;;;;;;;6.68;4.30;;;15.60;85.40;;;;;;5061839;28;20044;-66
2023/07/05 05:13:05;;;;;;;7.00;4.25;;;15.80;85.20;;;;;;5059994;28;20068;-66
2023/07/05 05:15:36;;;;;;;6.15;3.88;;;15.90;84.80;;;;;;5054394;28;20686;-66
2023/07/05 05:18:02;;;;;;;5.60;3.90;;;15.80;84.50;;;;;;5056325;28;20029;-66
2023/07/05 05:20:30;;;;;;;6.47;4.03;;;15.90;84.50;;;;;;5054148;28;20024;-65
2023/07/05 05:22:55;;;;;;;5.82;3.92;;;16.00;84.40;;;;;;5071384;28;20137;-66
2023/07/05 05:25:21;;;;;;;5.43;3.80;;;16.40;83.50;;;;;;5067341;28;20021;-65
2023/07/05 05:27:46;;;;;;;6.65;4.47;;;16.60;82.00;;;;;;5056867;28;20551;-66
2023/07/05 05:30:12;;;;;;;5.70;3.70;;;16.60;82.00;;;;;;5051057;28;20036;-66
2023/07/05 05:32:38;;;;;;;6.65;3.80;;;16.50;81.70;;;;;;5064794;28;20016;-66
2023/07/05 05:35:04;;;;;;;5.47;3.72;;;16.40;81.70;;;;;;5050881;28;20142;-66
2023/07/05 05:37:29;;;;;;;6.20;3.88;;;16.40;81.90;;;;;;5062059;28;20020;-66
2023/07/05 05:39:55;;;;;;;6.38;3.75;;;16.30;81.70;;;;;;5053146;28;20033;-67
2023/07/05 05:42:20;;;;;;;6.05;3.90;;;16.30;81.80;;;;;;5061414;28;20056;-66
2023/07/05 05:44:46;;;;;;;6.88;3.80;;;16.20;81.40;;;;;;5067062;28;20109;-66
2023/07/05 05:47:11;;;;;;;6.15;3.92;;;16.20;81.50;;;;;;5056757;28;20060;-66
2023/07/05 05:49:37;;;;;;;7.68;4.18;;;16.10;82.30;;;;;;5048824;28;20025;-67
2023/07/05 05:52:03;;;;;;;6.70;3.92;;;16.10;81.80;;;;;;5050564;28;20025;-66
2023/07/05 05:54:29;;;;;;;5.85;3.90;;;16.10;82.00;;;;;;5054365;28;20020;-66
2023/07/05 05:56:54;;;;;;;6.20;3.70;;;16.10;82.20;;;;;;5070153;28;20063;-66
2023/07/05 05:59:20;;;;;;;5.85;3.22;;;16.20;82.00;;;;;;5061726;28;21152;-66
2023/07/05 06:01:45;;;;;;;6.57;4.03;;;16.20;81.40;;;;;;5052956;28;20021;-66
2023/07/05 06:04:11;;;;;;;5.93;3.83;;;16.30;81.10;;;;;;5051698;28;20052;-67
2023/07/05 06:06:37;;;;;;;8.55;3.80;;;16.30;80.70;;;;;;5058461;28;20083;-67
2023/07/05 06:09:03;;;;;;;6.63;3.60;;;16.20;80.40;;;;;;5057235;28;20055;-66
2023/07/05 06:11:28;;;;;;;6.13;3.20;;;16.10;80.40;;;;;;5060917;28;20035;-67
2023/07/05 06:13:54;;;;;;;5.15;3.47;;;16.10;80.10;;;;;;5059262;28;20021;-67
2023/07/05 06:16:20;;;;;;;5.70;3.40;;;16.00;80.30;;;;;;5057632;28;20033;-67
2023/07/05 06:18:45;;;;;;;5.18;3.80;;;16.00;80.60;;;;;;5055896;28;20042;-67
2023/07/05 06:21:12;;;;;;;6.70;3.60;;;15.90;80.80;;;;;;5051668;28;20103;-67
2023/07/05 06:23:38;;;;;;;5.65;2.97;;;16.00;80.90;;;;;;5050905;28;20025;-67
2023/07/05 06:26:04;;;;;;;5.22;3.00;;;15.90;80.40;;;;;;5050881;28;20036;-67
2023/07/05 06:28:29;;;;;;;6.95;3.45;;;15.90;80.50;;;;;;5053914;28;20024;-68
2023/07/05 06:30:55;;;;;;;4.75;2.83;;;16.00;80.60;;;;;;5049521;28;20488;-67
2023/07/05 06:33:21;;;;;;;4.70;3.13;;;15.90;80.10;;;;;;5041592;28;20044;-67
2023/07/05 06:35:48;;;;;;;5.35;3.10;;;15.90;80.50;;;;;;5055847;28;20062;-67
2023/07/05 06:38:14;;;;;;;4.20;2.50;;;15.80;80.60;;;;;;5062372;28;20046;-67
2023/07/05 06:40:40;;;;;;;4.35;2.92;;;15.80;81.20;;;;;;5056391;28;20491;-68
2023/07/05 06:43:05;;;;;;;5.85;3.20;;;15.70;81.60;;;;;;5045036;28;20025;-67
2023/07/05 06:45:31;;;;;;;6.28;3.17;;;15.70;82.10;;;;;;5053533;28;20089;-67
2023/07/05 06:47:57;;;;;;;4.40;2.92;;;15.60;82.80;;;;;;5056583;28;20044;-67
2023/07/05 06:50:22;;;;;;;5.93;3.40;;;15.50;83.60;;;;;;5050963;28;20391;-67
2023/07/05 06:52:48;;;;;;;4.72;3.10;;;15.40;84.30;;;;;;5053515;28;20074;-67
2023/07/05 06:55:13;;;;;;;4.15;2.92;;;15.40;85.00;;;;;;5045121;28;20025;-67
2023/07/05 06:57:39;;;;;;;7.53;2.95;;;15.30;85.60;;;;;;5048729;28;20036;-68
2023/07/05 07:00:09;;;;;;;4.13;2.30;;;15.30;86.40;;;;;;5047652;28;20025;-68
2023/07/05 07:02:35;;;;;;;3.42;2.30;;;15.20;86.80;;;;;;5044531;28;20086;-68
2023/07/05 07:05:00;;;;;;;4.45;2.38;;;15.10;87.30;;;;;;5047615;28;20040;-67
2023/07/05 07:07:26;;;;;;;4.10;2.47;;;15.00;87.40;;;;;;5052342;28;20407;-67
2023/07/05 07:09:52;;;;;;;2.85;1.98;;;15.00;87.90;;;;;;5052928;28;20052;-67
2023/07/05 07:12:18;;;;;;;3.17;1.80;;;15.00;88.00;;;;;;5047605;28;20485;-67
2023/07/05 07:14:43;;;;;;;3.15;1.80;;;15.10;88.00;;;;;;5048308;28;20458;-67
2023/07/05 07:17:09;;;;;;;3.80;1.80;;;15.10;87.80;;;;;;5050469;28;20025;-67
2023/07/05 07:19:34;;;;;;;3.10;1.67;;;15.00;87.70;;;;;;5050146;28;20495;-67
2023/07/05 07:22:00;;;;;;;2.47;1.55;;;15.10;88.00;;;;;;5047655;28;20337;-67
2023/07/05 07:24:28;;;;;;;3.88;1.77;;;15.00;87.60;;;;;;5050524;28;20090;-67
2023/07/05 07:26:55;;;;;;;3.75;1.55;;;15.10;87.20;;;;;;5048316;28;20025;-67
2023/07/05 07:29:21;;;;;;;4.05;1.95;;;15.00;86.80;;;;;;5034689;28;20392;-68
2023/07/05 07:31:46;;;;;;;2.65;1.70;;;15.10;86.70;;;;;;5051367;28;20039;-67
2023/07/05 07:34:13;;;;;;;2.60;1.30;;;15.10;86.40;;;;;;5052469;28;20017;-67
2023/07/05 07:36:39;;;;;;;2.90;1.40;;;15.10;86.30;;;;;;5050614;28;20029;-68
2023/07/05 07:39:07;;;;;;;4.13;1.50;;;15.10;86.40;;;;;;5052253;28;20079;-68
2023/07/05 07:41:37;;;;;;;2.55;1.60;;;15.10;86.10;;;;;;5053028;28;20055;-68
2023/07/05 07:44:05;;;;;;;4.63;1.98;;;15.10;86.00;;;;;;5056582;28;20619;-68
2023/07/05 07:46:32;;;;;;;2.75;1.38;;;15.10;86.10;;;;;;5052293;28;20032;-68
2023/07/05 07:48:59;;;;;;;4.32;1.77;;;15.10;86.30;;;;;;5052844;28;20423;-68
2023/07/05 07:51:28;;;;;;;5.47;2.10;;;15.10;86.50;;;;;;5048872;28;20021;-68
2023/07/05 07:53:54;;;;;;;2.63;1.50;;;15.10;86.80;;;;;;5053232;28;20396;-68
2023/07/05 07:56:23;;;;;;;2.33;1.60;;;15.10;87.10;;;;;;5049591;28;20027;-68
2023/07/05 07:58:50;;;;;;;3.05;1.60;;;15.10;87.30;;;;;;5047439;28;20105;-68
2023/07/05 08:01:17;;;;;;;4.93;2.17;;;15.10;87.70;;;;;;5034400;28;20064;-68
2023/07/05 08:03:42;;;;;;;3.95;2.00;;;15.00;88.20;;;;;;5051766;28;20541;-67
2023/07/05 08:06:09;;;;;;;3.75;2.08;;;15.00;88.70;;;;;;5051669;28;20021;-67
2023/07/05 08:08:37;;;;;;;6.22;2.30;;;14.90;89.10;;;;;;5049969;28;20056;-67
2023/07/05 08:11:04;;;;;;;5.43;2.58;;;14.80;89.80;;;;;;5049534;28;20021;-68
2023/07/05 08:13:30;;;;;;;2.88;2.03;;;14.80;90.20;;;;;;5050215;28;20107;-67
2023/07/05 08:15:57;;;;;;;6.57;2.53;;;14.80;90.60;;;;;;5032699;28;20733;-67
2023/07/05 08:18:22;;;;;;;5.32;2.70;;;14.80;90.80;;;;;;5047313;28;20021;-67
2023/07/05 08:20:48;;;;;;;4.85;2.40;;;14.80;90.90;;;;;;5050249;28;20507;-67
2023/07/05 08:23:14;;;;;;;5.50;2.75;;;14.70;91.10;;;;;;5052449;28;20057;-67
2023/07/05 08:25:40;;;;;;;4.55;2.33;;;14.70;91.20;;;;;;5051595;28;20545;-67
2023/07/05 08:28:05;;;;;;;3.65;2.20;;;14.70;91.30;;;;;;5052118;28;20486;-67
2023/07/05 08:30:33;;;;;;;4.72;2.30;;;14.80;91.40;;;;;;5052801;28;20036;-68
2023/07/05 08:32:59;;;;;;;5.00;2.33;;;14.80;91.40;;;;;;5051166;28;20028;-68
2023/07/05 08:35:25;;;;;;;5.53;2.38;;;14.80;91.40;;;;;;5048849;28;20025;-68
2023/07/05 08:37:50;;;;;;;4.07;2.63;;;14.90;91.60;;;;;;5050383;28;20033;-68
2023/07/05 08:40:17;;;;;;;4.70;2.80;;;14.90;91.30;;;;;;5049780;28;20033;-68
2023/07/05 08:42:46;;;;;;;3.97;2.33;;;15.00;91.30;;;;;;5053586;28;20060;-68
2023/07/05 08:45:31;;;;;;;4.82;2.78;;;14.90;91.30;;;;;;5038598;28;20037;-67
2023/07/05 08:48:02;;;;;;;4.68;2.88;;;15.00;91.30;;;;;;5054438;28;20407;-68
2023/07/05 08:50:41;;;;;;;6.57;3.15;;;15.20;91.20;;;;;;5054647;28;20113;-68
2023/07/05 08:53:11;;;;;;;5.32;3.55;;;15.30;91.30;;;;;;5052199;28;20471;-68
2023/07/05 08:56:04;;;;;;;6.80;3.40;;;15.50;91.20;;;;;;5050965;28;20654;-68
2023/07/05 08:58:35;;;;;;;5.65;3.88;;;15.60;91.10;;;;;;5048898;28;20487;-68
2023/07/05 09:01:04;;;;;;;5.75;3.20;;;15.60;91.00;;;;;;5054627;28;20144;-68
2023/07/05 09:03:30;;;;;;;5.57;3.30;;;15.60;90.80;;;;;;5049697;28;20066;-68
2023/07/05 09:06:32;;;;;;;5.28;3.63;;;15.60;90.80;;;;;;5036243;28;20040;-68
2023/07/05 09:09:04;;;;;;;5.57;3.05;;;15.50;90.80;;;;;;5036614;28;20052;-68
2023/07/05 09:11:47;;;;;;;4.85;2.30;;;15.40;90.90;;;;;;5034687;28;20195;-68
2023/07/05 09:14:24;;;;;;;3.28;1.70;;;15.30;91.10;;;;;;5050738;28;20029;-67
2023/07/05 09:17:02;;;;;;;4.55;2.13;;;15.10;91.10;;;;;;5030796;28;20791;-67
2023/07/05 09:19:47;;;;;;;4.43;2.30;;;15.00;91.30;;;;;;5048736;28;21024;-67
2023/07/05 09:22:25;;;;;;;4.55;2.15;;;15.00;91.40;;;;;;5051583;28;20029;-67
2023/07/05 09:24:52;;;;;;;5.40;2.58;;;15.10;91.40;;;;;;5049954;28;20582;-68
2023/07/05 09:27:29;;;;;;;6.35;2.63;;;15.10;91.40;;;;;;5047713;28;20025;-68
2023/07/05 09:30:06;;;;;;;4.47;2.28;;;14.90;91.40;;;;;;5049963;28;20045;-69
2023/07/05 09:32:39;;;;;;;5.45;1.70;;;14.60;91.30;;;;;;5036045;28;20024;-68
2023/07/05 09:35:19;;;;;;;4.90;2.08;;;14.40;91.60;;;;;;5056587;28;20028;-68
2023/07/05 09:38:00;;;;;;;5.45;2.20;;;14.30;91.70;;;;;;5030487;28;20023;-68
2023/07/05 09:40:31;;;;;;;4.90;2.05;;;14.20;91.90;;;;;;5053224;28;20056;-67
2023/07/05 09:43:11;;;;;;;4.17;2.10;;;14.10;92.00;;;;;;5035308;28;20028;-68
2023/07/05 09:45:37;;;;;;;5.43;2.03;;;14.10;92.10;;;;;;5047395;28;20283;-67
2023/07/05 09:48:05;;;;;;;5.32;2.72;;;14.00;92.10;;;;;;5047868;28;20021;-67
2023/07/05 09:50:32;;;;;;;5.20;2.42;;;14.00;92.30;;;;;;5050179;28;20025;-68
2023/07/05 09:53:02;;;;;;;4.85;2.08;;;14.10;92.30;;;;;;5050771;28;20048;-68
2023/07/05 09:55:29;;;;;;;4.70;2.03;;;14.10;92.20;;;;;;5046612;28;20088;-68
2023/07/05 09:57:54;;;;;;;4.70;2.00;;;14.10;92.10;;;;;;5046450;28;20562;-67
2023/07/05 10:00:32;;;;;;;3.38;1.98;;;14.10;92.10;;;;;;5050431;28;20143;-67
2023/07/05 10:03:10;;;;;;;5.05;2.10;;;14.00;92.20;;;;;;5042283;28;20690;-67
2023/07/05 10:05:36;;;;;;;5.78;2.20;;;14.10;92.20;;;;;;5026318;28;20032;-67
2023/07/05 10:08:04;;;;;;;5.20;1.80;;;14.10;92.20;;;;;;5029656;28;20036;-67
2023/07/05 10:10:36;;;;;;;5.55;2.40;;;14.20;92.30;;;;;;5049815;28;20021;-68
2023/07/05 10:13:10;;;;;;;5.70;2.25;;;14.30;92.30;;;;;;5047522;28;20492;-67
2023/07/05 10:15:42;;;;;;;4.78;2.10;;;14.40;92.20;;;;;;5049003;28;20029;-67
2023/07/05 10:18:33;;;;;;;5.05;2.30;;;14.50;92.10;;;;;;5049924;28;20040;-67
2023/07/05 10:21:04;;;;;;;6.60;2.08;;;14.60;92.10;;;;;;5045378;28;20025;-67
2023/07/05 10:23:32;;;;;;;6.23;2.20;;;14.70;92.00;;;;;;5046239;28;20027;-67
2023/07/05 10:26:06;;;;;;;5.35;2.58;;;14.70;92.00;;;;;;5047124;28;20286;-67
2023/07/05 10:28:35;;;;;;;7.53;3.03;;;14.60;92.20;;;;;;5046296;28;20116;-67
2023/07/05 10:31:04;;;;;;;8.10;3.00;;;14.50;91.90;;;;;;5047748;28;20051;-67
2023/07/05 10:33:37;;;;;;;7.15;2.60;;;14.50;92.00;;;;;;5047315;28;20488;-68
2023/07/05 10:36:09;;;;;;;6.18;2.80;;;14.40;92.10;;;;;;5050013;28;20100;-67
2023/07/05 10:38:46;;;;;;;6.43;2.65;;;14.40;92.20;;;;;;5048040;28;20036;-67
2023/07/05 10:41:20;;;;;;;5.35;2.42;;;14.40;92.20;;;;;;5050107;28;20037;-67
2023/07/05 10:44:10;;;;;;;5.78;2.55;;;14.40;92.20;;;;;;5046583;28;20025;-67
2023/07/05 10:46:36;;;;;;;6.20;2.65;;;14.50;92.20;;;;;;5048454;28;20039;-67
2023/07/05 10:49:07;;;;;;;5.80;2.45;;;14.50;92.20;;;;;;5049039;28;20024;-67
2023/07/05 10:51:40;;;;;;;5.45;2.50;;;14.50;92.20;;;;;;5044542;28;20036;-67
2023/07/05 10:54:33;;;;;;;7.18;2.92;;;14.60;92.10;;;;;;5051871;28;20025;-67
2023/07/05 10:57:05;;;;;;;8.00;3.00;;;14.60;92.10;;;;;;5047332;28;20025;-67
2023/07/05 10:59:36;;;;;;;5.82;2.38;;;14.60;92.10;;;;;;5047707;28;20364;-67
2023/07/05 11:02:20;;;;;;;5.47;2.50;;;14.60;92.00;;;;;;5048419;28;20036;-67
2023/07/05 11:04:49;;;;;;;5.97;2.63;;;14.70;92.00;;;;;;5044990;28;20051;-67
2023/07/05 11:07:17;;;;;;;5.72;2.58;;;14.70;92.00;;;;;;5047627;28;20114;-67
2023/07/05 11:09:42;;;;;;;7.85;3.05;;;14.80;92.10;;;;;;5049879;28;20422;-67
2023/07/05 11:12:15;;;;;;;7.15;2.58;;;14.90;92.00;;;;;;5047416;28;20028;-67
2023/07/05 11:14:41;;;;;;;6.53;2.88;;;15.00;91.90;;;;;;5033757;28;20491;-67
2023/07/05 11:17:18;;;;;;;7.20;2.67;;;15.10;92.00;;;;;;5051816;28;20025;-67
2023/07/05 11:19:43;;;;;;;7.47;2.75;;;15.20;91.90;;;;;;5052211;28;20036;-67
2023/07/05 11:22:36;;;;;;;6.47;2.40;;;15.30;91.80;;;;;;5051197;28;20671;-68
2023/07/05 11:25:01;;;;;;;;;;;15.40;91.60;;;;;;5035037;28;20437;-67
2023/07/05 11:27:30;;;;;;;4.97;2.40;;;15.50;91.50;;;;;;5051442;28;19999;-67
2023/07/05 11:29:57;;;;;;;5.20;2.10;;;15.50;91.60;;;;;;5051830;28;20112;-67
2023/07/05 11:32:49;;;;;;;4.95;2.30;;;15.60;91.40;;;;;;5054763;28;20483;-67
2023/07/05 11:35:54;;;;;;;7.13;2.47;;;15.80;91.40;;;;;;5026223;28;20086;-67
2023/07/05 11:38:55;;;;;;;5.88;2.35;;;15.90;91.20;;;;;;5051859;28;20469;-67
2023/07/05 11:41:23;;;;;;;6.38;3.28;;;16.10;91.00;;;;;;5008575;28;20041;-67
2023/07/05 11:44:19;;;;;;;6.50;2.88;;;16.20;90.90;;;;;;5057704;28;20143;-67
2023/07/05 11:46:47;;;;;;;4.68;2.33;;;16.30;91.00;;;;;;5036847;28;20033;-67
2023/07/05 11:49:26;;;;;;;6.13;2.67;;;16.50;90.80;;;;;;5051433;28;20021;-67
2023/07/05 11:52:17;;;;;;;8.48;2.55;;;16.50;90.70;;;;;;5054246;28;20029;-67
2023/07/05 11:54:54;;;;;;;5.47;2.63;;;16.70;90.50;;;;;;5053865;28;20066;-66
2023/07/05 11:57:21;;;;;;;6.95;2.30;;;16.80;90.00;;;;;;5051577;28;20468;-67
2023/07/05 12:00:10;;;;;;;6.57;2.50;;;16.90;88.50;;;;;;5053753;28;20024;-67
2023/07/05 12:02:45;;;;;;;5.80;2.30;;;17.00;85.80;;;;;;5053181;28;20041;-66
2023/07/05 12:05:15;;;;;;;4.90;2.20;;;17.10;85.00;;;;;;5053873;28;20040;-66
2023/07/05 12:07:43;;;;;;;5.90;2.17;;;17.20;84.80;;;;;;5048716;28;20033;-66
2023/07/05 12:10:17;;;;;;;10.55;3.17;;;17.30;84.70;;;;;;5043277;28;20060;-66
2023/07/05 12:12:43;;;;;;;5.63;2.80;;;17.20;85.40;;;;;;5047539;28;20025;-66
2023/07/05 12:15:12;;;;;;;7.72;3.05;;;17.10;86.40;;;;;;5049678;28;20021;-66
2023/07/05 12:17:38;;;;;;;7.60;3.17;;;17.00;87.10;;;;;;5049716;28;20139;-66
2023/07/05 12:20:31;;;;;;;6.43;2.75;;;16.80;87.50;;;;;;5048103;28;20345;-66
2023/07/05 12:22:58;;;;;;;5.45;2.17;;;16.60;88.10;;;;;;5032451;28;20017;-66
2023/07/05 12:25:25;;;;;;;4.85;2.50;;;16.50;88.50;;;;;;5053450;28;20137;-66
2023/07/05 12:27:52;;;;;;;5.80;2.15;;;16.40;89.30;;;;;;5049856;28;21071;-66
2023/07/05 12:30:20;;;;;;;4.93;2.05;;;16.50;88.80;;;;;;5048345;28;20112;-66
2023/07/05 12:32:55;;;;;;;4.22;2.08;;;16.40;88.60;;;;;;5049177;28;20021;-66
2023/07/05 12:35:24;;;;;;;3.38;1.77;;;16.40;88.30;;;;;;5047959;28;20036;-66
2023/07/05 12:37:52;;;;;;;3.38;1.85;;;16.30;88.10;;;;;;5049488;28;20053;-66
2023/07/05 12:40:21;;;;;;;6.38;2.30;;;16.30;88.20;;;;;;5049965;28;20020;-66
2023/07/05 12:42:54;;;;;;;5.25;2.30;;;16.30;88.10;;;;;;5051463;28;20171;-66
2023/07/05 12:45:27;;;;;;;4.65;1.90;;;16.30;88.10;;;;;;5050864;28;20032;-66
2023/07/05 12:47:53;;;;;;;3.53;2.00;;;16.40;87.90;;;;;;5033406;28;20029;-66
2023/07/05 12:50:21;;;;;;;3.33;2.10;;;16.50;87.40;;;;;;5032949;28;20056;-66
2023/07/05 12:53:06;;;;;;;3.05;1.73;;;16.40;87.20;;;;;;5054141;28;20021;-66
2023/07/05 12:55:34;;;;;;;4.30;1.90;;;16.50;87.10;;;;;;5046609;28;20029;-66
2023/07/05 12:58:02;;;;;;;4.75;2.28;;;16.50;87.20;;;;;;5049844;28;20091;-66